Terminal Aerodrome Forecast
Issued by NWS

Home | Current Version | Previous Version | Text Only | Print | Product List | Glossary On
Versions: 1 2 3 4 5 6 7 8 9 10 11 12 13 14 15 16 17 18 19
000
FTUS43 KGRB 271936 AAA
TAFRHI
TAF AMD
KRHI 271936Z 2720/2818 04003KT P6SM SCT045 BKN090
     FM280100 03003KT P6SM BKN050
     FM280900 VRB03KT 5SM BR SKC
      TEMPO 2809/2812 1SM BR
     FM281300 07005KT P6SM SCT035=

USA.gov is the U.S. government's official web portal to all federal, state and local government web resources and services.